Time;durP1;ratioP1;P1;durP2;ratioP2;P2;SDS_P1;SDS_P2;PMS_P1;PMS_P2;Temp;Humidity;BMP_temperature;BMP_pressure;BME280_temperature;BME280_humidity;BME280_pressure;Samples;Min_cycle;Max_cycle;Signal;HPM_P1;HPM_P2
2023/07/23 00:01:29;;;;;;;6.50;3.95;;;;;;;17.71;70.49;98866.94;5051556;28;20143;-40
2023/07/23 00:03:55;;;;;;;8.30;4.50;;;;;;;17.66;70.60;98855.94;5069422;28;20043;-39
2023/07/23 00:06:21;;;;;;;8.23;4.25;;;;;;;17.65;70.89;98861.31;5068892;28;20462;-40
2023/07/23 00:08:47;;;;;;;9.20;4.28;;;;;;;17.65;71.03;98862.13;5069175;28;20068;-40
2023/07/23 00:11:12;;;;;;;9.93;4.05;;;;;;;17.65;71.09;98863.94;5069546;28;20043;-40
2023/07/23 00:13:38;;;;;;;12.02;4.47;;;;;;;17.49;71.45;98839.72;5070545;28;20458;-40
2023/07/23 00:16:05;;;;;;;9.00;4.32;;;;;;;17.49;71.55;98837.94;5068360;28;20050;-39
2023/07/23 00:18:30;;;;;;;10.23;4.63;;;;;;;17.60;71.84;98856.41;5050974;28;20044;-40
2023/07/23 00:20:56;;;;;;;9.25;4.28;;;;;;;17.58;72.05;98857.44;5067434;28;20055;-40
2023/07/23 00:23:22;;;;;;;11.02;4.55;;;;;;;17.55;71.87;98855.88;5068234;28;20047;-40
2023/07/23 00:25:48;;;;;;;8.75;4.57;;;;;;;17.54;72.11;98854.19;5068769;28;20088;-40
2023/07/23 00:28:14;;;;;;;6.80;4.43;;;;;;;17.55;72.04;98857.66;5068532;28;20040;-39
2023/07/23 00:30:40;;;;;;;8.95;4.30;;;;;;;17.56;72.31;98856.72;5050788;28;20552;-39
2023/07/23 00:33:07;;;;;;;10.32;4.50;;;;;;;17.54;72.41;98859.44;5070377;28;20040;-40
2023/07/23 00:35:33;;;;;;;11.38;5.10;;;;;;;17.51;72.80;98854.44;5066912;28;20074;-40
2023/07/23 00:37:59;;;;;;;11.13;4.70;;;;;;;17.46;73.00;98856.59;5069360;28;20072;-39
2023/07/23 00:40:25;;;;;;;8.80;4.88;;;;;;;17.31;72.78;98827.06;5069121;28;20052;-39
2023/07/23 00:42:51;;;;;;;8.93;4.10;;;;;;;17.48;73.28;98854.66;5047602;28;20041;-39
2023/07/23 00:45:17;;;;;;;6.32;4.03;;;;;;;17.44;73.42;98850.59;5067086;28;20032;-39
2023/07/23 00:47:44;;;;;;;9.18;4.57;;;;;;;17.44;73.50;98853.22;5057725;28;20041;-39
2023/07/23 00:50:11;;;;;;;9.07;4.30;;;;;;;17.41;73.42;98860.50;5048451;28;20163;-40
2023/07/23 00:52:38;;;;;;;8.00;4.38;;;;;;;17.38;73.50;98848.41;5064215;28;20049;-39
2023/07/23 00:55:04;;;;;;;7.13;4.07;;;;;;;17.44;73.51;98857.63;5069956;28;20074;-40
2023/07/23 00:57:31;;;;;;;6.70;3.92;;;;;;;17.48;73.47;98845.97;5059216;28;20037;-38
2023/07/23 00:59:57;;;;;;;9.32;4.57;;;;;;;17.51;73.41;98843.09;5032149;28;20813;-39
2023/07/23 01:02:26;;;;;;;7.18;4.43;;;;;;;17.42;73.30;98842.00;5061275;28;20078;-40
2023/07/23 01:04:53;;;;;;;9.13;4.55;;;;;;;17.26;73.43;98837.06;5050109;28;20044;-40
2023/07/23 01:07:19;;;;;;;8.77;4.28;;;;;;;17.33;73.92;98845.31;5031122;28;20047;-39
2023/07/23 01:09:46;;;;;;;6.95;4.45;;;;;;;17.26;73.89;98844.13;5069565;28;20046;-39
2023/07/23 01:12:14;;;;;;;7.22;4.18;;;;;;;17.25;74.06;98848.53;5069694;28;20036;-39
2023/07/23 01:14:41;;;;;;;9.20;4.20;;;;;;;17.22;74.41;98853.16;5067869;28;20036;-39
2023/07/23 01:17:07;;;;;;;6.03;4.32;;;;;;;17.17;74.93;98855.28;5034738;28;20465;-40
2023/07/23 01:19:36;;;;;;;11.18;4.18;;;;;;;16.98;74.96;98820.84;5051281;28;20066;-38
2023/07/23 01:22:05;;;;;;;7.93;4.20;;;;;;;17.05;75.18;98850.97;5068200;28;20037;-39
2023/07/23 01:24:31;;;;;;;6.20;4.45;;;;;;;17.03;75.44;98855.47;5068158;28;20052;-39
2023/07/23 01:26:56;;;;;;;9.20;4.25;;;;;;;17.04;75.38;98855.38;5051306;28;20032;-39
2023/07/23 01:29:22;;;;;;;11.10;4.50;;;;;;;17.07;75.59;98859.53;5067784;28;20044;-38
2023/07/23 01:31:48;;;;;;;4.95;3.88;;;;;;;17.07;75.52;98863.00;5050813;28;20093;-40
2023/07/23 01:34:14;;;;;;;7.57;4.25;;;;;;;17.09;75.45;98863.75;5067898;28;20036;-41
2023/07/23 01:36:41;;;;;;;9.57;4.30;;;;;;;17.15;75.22;98868.56;5068908;28;20610;-40
2023/07/23 01:39:07;;;;;;;8.05;4.65;;;;;;;17.18;75.21;98870.09;5051870;28;20067;-39
2023/07/23 01:41:33;;;;;;;9.32;4.57;;;;;;;17.12;75.48;98865.28;5067779;28;20065;-39
2023/07/23 01:43:59;;;;;;;8.60;4.15;;;;;;;17.08;75.44;98867.31;5034078;28;20040;-40
2023/07/23 01:46:25;;;;;;;6.82;4.32;;;;;;;17.05;75.72;98862.31;5051081;28;20049;-38
2023/07/23 01:48:51;;;;;;;8.07;4.70;;;;;;;16.84;75.79;98829.75;5067584;28;20044;-39
2023/07/23 01:51:17;;;;;;;8.77;4.65;;;;;;;17.01;76.13;98873.16;5067224;28;20064;-39
2023/07/23 01:53:43;;;;;;;7.70;4.43;;;;;;;16.98;76.02;98865.47;5059460;28;20508;-39
2023/07/23 01:56:09;;;;;;;5.70;3.58;;;;;;;16.95;76.12;98858.69;5020825;28;20055;-39
2023/07/23 01:58:35;;;;;;;7.72;4.03;;;;;;;16.91;76.44;98858.06;5062578;28;20477;-40
2023/07/23 02:01:02;;;;;;;7.72;4.10;;;;;;;16.92;76.13;98861.53;5055931;28;20127;-39
2023/07/23 02:03:28;;;;;;;8.32;4.18;;;;;;;16.88;76.10;98852.19;5077279;28;20052;-40
2023/07/23 02:05:58;;;;;;;9.63;3.65;;;;;;;16.97;76.27;98866.44;5067104;28;20048;-40
2023/07/23 02:08:24;;;;;;;9.02;3.90;;;;;;;16.96;76.08;98862.16;5065899;28;20419;-40
2023/07/23 02:10:50;;;;;;;7.35;4.20;;;;;;;16.90;75.90;98852.94;5029898;28;20039;-40
2023/07/23 02:13:16;;;;;;;6.90;3.80;;;;;;;16.86;76.34;98844.44;5048165;28;20044;-40
2023/07/23 02:15:42;;;;;;;8.57;3.92;;;;;;;16.93;76.05;98858.78;5038890;28;20028;-39
2023/07/23 02:18:08;;;;;;;8.10;3.47;;;;;;;16.65;76.02;98818.91;5028170;28;20041;-40
2023/07/23 02:20:36;;;;;;;6.25;3.72;;;;;;;16.92;76.02;98870.22;5061883;28;20044;-40
2023/07/23 02:23:01;;;;;;;7.20;3.50;;;;;;;16.89;76.07;98857.34;5081579;28;20044;-40
2023/07/23 02:25:27;;;;;;;7.95;3.80;;;;;;;16.90;76.07;98859.00;5066370;28;20043;-40
2023/07/23 02:27:53;;;;;;;9.65;3.90;;;;;;;16.89;75.85;98859.97;5055349;28;20040;-39
2023/07/23 02:30:19;;;;;;;6.05;3.78;;;;;;;16.91;75.61;98863.31;5067063;28;20040;-39
2023/07/23 02:32:45;;;;;;;6.07;3.65;;;;;;;16.90;75.65;98851.13;5047983;28;20044;-40
2023/07/23 02:35:11;;;;;;;9.27;3.78;;;;;;;16.97;75.71;98864.63;5049851;28;20051;-39
2023/07/23 02:37:37;;;;;;;7.20;4.22;;;;;;;16.98;75.51;98855.81;5048922;28;20139;-39
2023/07/23 02:40:03;;;;;;;9.65;3.80;;;;;;;16.97;75.31;98861.19;5063052;28;20163;-38
2023/07/23 02:42:29;;;;;;;9.60;3.60;;;;;;;16.96;75.14;98868.22;5065895;28;20040;-39
2023/07/23 02:44:55;;;;;;;7.55;3.88;;;;;;;16.98;75.04;98861.06;5065471;28;20127;-39
2023/07/23 02:47:21;;;;;;;8.27;3.85;;;;;;;17.00;74.88;98864.44;5048074;28;20071;-39
2023/07/23 02:49:46;;;;;;;10.77;3.65;;;;;;;16.97;74.97;98858.56;5065684;28;20098;-39
2023/07/23 02:52:12;;;;;;;5.53;3.70;;;;;;;16.76;74.87;98826.84;5048626;28;20072;-40
2023/07/23 02:54:38;;;;;;;6.65;3.65;;;;;;;17.02;74.75;98859.03;5056546;28;20041;-38
2023/07/23 02:57:04;;;;;;;8.23;3.47;;;;;;;16.96;75.19;98862.97;5058297;28;20056;-39
2023/07/23 02:59:30;;;;;;;5.57;3.33;;;;;;;16.92;75.23;98858.91;5065965;28;20040;-39
2023/07/23 03:01:56;;;;;;;5.93;3.42;;;;;;;16.90;75.27;98856.38;5055399;28;20452;-38
2023/07/23 03:04:26;;;;;;;7.15;3.33;;;;;;;16.93;74.83;98847.44;5051268;28;20056;-39
2023/07/23 03:06:53;;;;;;;5.05;3.00;;;;;;;16.95;74.85;98856.06;5066014;28;20086;-38
2023/07/23 03:09:19;;;;;;;9.88;3.58;;;;;;;16.98;74.62;98855.81;5048686;28;20577;-39
2023/07/23 03:11:45;;;;;;;4.93;3.50;;;;;;;16.96;74.55;98849.84;5066347;28;20048;-40
2023/07/23 03:14:11;;;;;;;6.07;3.28;;;;;;;16.96;74.46;98862.97;5045023;28;20465;-40
2023/07/23 03:16:37;;;;;;;6.50;3.30;;;;;;;16.95;74.45;98858.69;5045147;28;20094;-40
2023/07/23 03:19:03;;;;;;;5.18;3.10;;;;;;;17.00;74.42;98858.34;5064030;28;20504;-39
2023/07/23 03:21:29;;;;;;;5.00;3.33;;;;;;;17.02;74.10;98864.31;5065536;28;20148;-39
2023/07/23 03:23:54;;;;;;;7.97;3.17;;;;;;;17.02;74.34;98859.03;5048611;28;20504;-38
2023/07/23 03:26:22;;;;;;;6.60;3.35;;;;;;;16.97;74.41;98859.38;5065095;28;20127;-39
2023/07/23 03:28:47;;;;;;;6.40;3.10;;;;;;;16.99;74.31;98868.00;5065413;28;20123;-39
2023/07/23 03:31:13;;;;;;;7.38;2.97;;;;;;;17.02;74.44;98865.13;5066228;28;20049;-38
2023/07/23 03:33:39;;;;;;;7.22;2.83;;;;;;;17.08;74.50;98863.84;5065410;28;20045;-39
2023/07/23 03:36:06;;;;;;;5.75;2.97;;;;;;;17.21;73.90;98864.63;5054474;28;20136;-39
2023/07/23 03:38:33;;;;;;;7.38;2.90;;;;;;;17.19;73.63;98835.84;5079254;28;20037;-38
2023/07/23 03:40:58;;;;;;;5.32;2.60;;;;;;;17.53;72.86;98863.06;5049423;28;20040;-39
2023/07/23 03:43:25;;;;;;;8.05;2.90;;;;;;;17.56;72.41;98838.31;5036413;28;20059;-39
2023/07/23 03:45:51;;;;;;;4.05;2.50;;;;;;;17.76;71.90;98863.94;5051878;28;20046;-39
2023/07/23 03:48:17;;;;;;;7.00;2.70;;;;;;;17.69;71.41;98853.06;5071427;28;20132;-39
2023/07/23 03:50:43;;;;;;;5.60;2.45;;;;;;;17.75;71.18;98847.34;5069963;28;20047;-38
2023/07/23 03:53:09;;;;;;;4.60;2.70;;;;;;;17.74;70.82;98845.66;5070197;28;20048;-39
2023/07/23 03:55:35;;;;;;;4.72;2.45;;;;;;;17.91;70.47;98854.88;5071535;28;20066;-39
2023/07/23 03:58:01;;;;;;;5.80;2.40;;;;;;;17.90;69.95;98855.81;5049819;28;20143;-39
2023/07/23 04:00:27;;;;;;;5.70;2.47;;;;;;;17.92;69.94;98858.34;5055465;28;20090;-39
2023/07/23 04:02:53;;;;;;;3.75;2.25;;;;;;;17.95;69.84;98858.13;5069074;28;20044;-41
2023/07/23 04:05:19;;;;;;;5.32;3.03;;;;;;;17.97;69.32;98854.41;5067422;28;20047;-39
2023/07/23 04:07:45;;;;;;;5.63;3.05;;;;;;;17.95;68.69;98824.75;5051021;28;20044;-38
2023/07/23 04:10:11;;;;;;;6.22;2.38;;;;;;;18.08;68.26;98814.94;5067009;28;20493;-40
2023/07/23 04:12:37;;;;;;;6.18;2.92;;;;;;;18.43;67.69;98848.13;5069933;28;20046;-39
2023/07/23 04:15:03;;;;;;;4.72;2.30;;;;;;;18.62;67.08;98845.75;5068204;28;20097;-40
2023/07/23 04:17:31;;;;;;;3.90;2.10;;;;;;;18.75;66.78;98842.97;5062079;28;20041;-39
2023/07/23 04:19:57;;;;;;;6.93;3.10;;;;;;;18.69;66.61;98852.19;5049027;28;20044;-39
2023/07/23 04:22:23;;;;;;;5.13;2.45;;;;;;;18.44;66.29;98812.97;5068147;28;20059;-39
2023/07/23 04:24:49;;;;;;;5.30;2.58;;;;;;;18.63;66.15;98854.50;5062952;28;20072;-39
2023/07/23 04:27:15;;;;;;;3.70;2.50;;;;;;;18.53;65.77;98826.22;5069542;28;20040;-39
2023/07/23 04:29:41;;;;;;;8.70;2.65;;;;;;;18.72;65.75;98857.22;5051533;28;20143;-40
2023/07/23 04:32:07;;;;;;;5.63;2.80;;;;;;;18.71;65.75;98849.44;5069077;28;20421;-40
2023/07/23 04:34:33;;;;;;;6.90;2.33;;;;;;;18.72;65.53;98849.31;5051910;28;20051;-39
2023/07/23 04:36:59;;;;;;;5.95;2.20;;;;;;;18.73;65.53;98844.91;5048022;28;20036;-40
2023/07/23 04:39:25;;;;;;;4.72;2.47;;;;;;;18.74;65.40;98841.28;5059274;28;20741;-39
2023/07/23 04:41:51;;;;;;;5.65;2.75;;;;;;;18.74;65.39;98852.66;5058007;28;20064;-40
2023/07/23 04:44:17;;;;;;;5.65;2.55;;;;;;;18.74;65.38;98847.38;5070326;28;20075;-39
2023/07/23 04:46:43;;;;;;;8.80;2.78;;;;;;;18.70;65.51;98850.41;5068744;28;20071;-40
2023/07/23 04:49:09;;;;;;;6.18;2.72;;;;;;;18.63;65.39;98821.13;5067990;28;20076;-39
2023/07/23 04:51:35;;;;;;;3.70;2.30;;;;;;;18.85;64.88;98835.97;5066525;28;20040;-40
2023/07/23 04:54:01;;;;;;;7.38;2.15;;;;;;;18.82;64.59;98807.28;5064988;28;20132;-40
2023/07/23 04:56:27;;;;;;;4.47;2.55;;;;;;;19.12;64.07;98838.97;5065927;28;20056;-40
2023/07/23 04:58:53;;;;;;;6.40;2.67;;;;;;;19.25;63.81;98844.09;5051348;28;20036;-40
2023/07/23 05:01:19;;;;;;;7.05;2.58;;;;;;;19.34;63.62;98843.31;5063570;28;20528;-40
2023/07/23 05:03:45;;;;;;;4.65;2.30;;;;;;;19.43;63.28;98846.00;5069658;28;20102;-39
2023/07/23 05:06:10;;;;;;;4.82;2.15;;;;;;;19.49;62.81;98838.56;5066891;28;20036;-41
2023/07/23 05:08:36;;;;;;;3.88;1.95;;;;;;;19.43;61.91;98839.91;5068696;28;20045;-39
2023/07/23 05:11:04;;;;;;;7.63;2.97;;;;;;;19.48;62.06;98840.38;5059252;28;20079;-39
2023/07/23 05:13:30;;;;;;;2.90;2.10;;;;;;;19.57;61.95;98837.00;5046570;28;20040;-40
2023/07/23 05:16:02;;;;;;;4.80;2.17;;;;;;;19.67;61.96;98839.69;5055784;28;20032;-40
2023/07/23 05:18:29;;;;;;;3.28;2.20;;;;;;;19.72;61.96;98835.69;5050509;28;20047;-40
2023/07/23 05:20:55;;;;;;;3.65;2.40;;;;;;;19.58;61.73;98838.63;5058843;28;20544;-40
2023/07/23 05:23:22;;;;;;;3.97;2.50;;;;;;;19.31;62.17;98812.75;5049559;28;20044;-39
2023/07/23 05:25:48;;;;;;;5.35;2.30;;;;;;;19.49;62.64;98844.69;5040667;28;20138;-40
2023/07/23 05:28:14;;;;;;;6.05;2.65;;;;;;;19.60;62.45;98843.78;5048276;28;20123;-40
2023/07/23 05:30:40;;;;;;;4.63;2.40;;;;;;;19.76;62.61;98833.59;5064786;28;20050;-40
2023/07/23 05:33:06;;;;;;;5.45;2.80;;;;;;;19.97;62.15;98830.94;5068097;28;20052;-40
2023/07/23 05:35:32;;;;;;;4.85;2.50;;;;;;;20.25;61.32;98828.38;5066409;28;20060;-40
2023/07/23 05:37:57;;;;;;;4.13;1.98;;;;;;;20.66;59.82;98813.38;5066434;28;20044;-39
2023/07/23 05:40:24;;;;;;;2.45;1.75;;;;;;;21.01;58.39;98832.16;5067506;28;20040;-41
2023/07/23 05:42:55;;;;;;;5.05;2.00;;;;;;;21.17;57.16;98833.44;5066910;28;20044;-40
2023/07/23 05:45:21;;;;;;;2.97;1.85;;;;;;;21.15;56.54;98809.78;5068240;28;20105;-40
2023/07/23 05:47:47;;;;;;;4.88;2.17;;;;;;;21.42;55.71;98830.19;5066211;28;20040;-39
2023/07/23 05:50:13;;;;;;;7.05;1.85;;;;;;;21.45;55.47;98825.47;5067269;28;20534;-40
2023/07/23 05:52:39;;;;;;;4.82;2.10;;;;;;;21.56;55.67;98830.59;5067893;28;20048;-40
2023/07/23 05:55:05;;;;;;;6.60;2.40;;;;;;;21.69;55.53;98832.09;5059871;28;20043;-41
2023/07/23 05:57:31;;;;;;;5.55;1.90;;;;;;;21.73;55.56;98830.81;5047523;28;20611;-40
2023/07/23 05:59:56;;;;;;;4.13;1.95;;;;;;;21.79;55.43;98824.97;5066167;28;20060;-40
2023/07/23 06:02:23;;;;;;;5.47;1.70;;;;;;;21.76;55.21;98818.16;5053939;28;20041;-40
2023/07/23 06:04:49;;;;;;;5.05;2.00;;;;;;;21.88;55.10;98824.09;5063710;28;20032;-40
2023/07/23 06:07:15;;;;;;;4.13;1.95;;;;;;;21.67;54.92;98804.97;5065582;28;20709;-40
2023/07/23 06:09:41;;;;;;;5.72;2.10;;;;;;;21.69;55.37;98826.81;5033709;28;20041;-40
2023/07/23 06:12:07;;;;;;;5.50;1.85;;;;;;;21.73;55.47;98833.47;5062158;28;20471;-40
2023/07/23 06:14:32;;;;;;;7.00;1.80;;;;;;;21.81;55.05;98825.66;5064815;28;20032;-39
2023/07/23 06:16:58;;;;;;;3.70;1.88;;;;;;;21.84;54.78;98830.66;5063615;28;20431;-40
2023/07/23 06:19:24;;;;;;;2.80;1.60;;;;;;;22.05;54.39;98823.34;5067126;28;20033;-40
2023/07/23 06:21:50;;;;;;;3.53;2.00;;;;;;;22.10;54.15;98799.94;5068071;28;20479;-39
2023/07/23 06:24:16;;;;;;;3.90;1.92;;;;;;;22.15;53.94;98818.84;5069633;28;20602;-39
2023/07/23 06:26:42;;;;;;;6.60;1.92;;;;;;;22.12;54.42;98821.81;5073954;28;20065;-41
2023/07/23 06:29:08;;;;;;;4.50;1.73;;;;;;;22.09;54.37;98823.88;5087066;28;20118;-41
2023/07/23 06:31:34;;;;;;;5.22;2.30;;;;;;;22.04;54.83;98812.91;5088472;28;20050;-41
2023/07/23 06:34:00;;;;;;;5.47;2.38;;;;;;;22.07;54.59;98810.81;5084577;28;20041;-41
2023/07/23 06:36:27;;;;;;;5.80;2.50;;;;;;;22.15;54.31;98816.22;5068017;28;20071;-40
2023/07/23 06:38:53;;;;;;;5.15;1.73;;;;;;;22.15;54.06;98818.03;5051352;28;20141;-40
2023/07/23 06:41:19;;;;;;;6.47;1.77;;;;;;;21.86;53.73;98813.66;5067249;28;20090;-40
2023/07/23 06:43:44;;;;;;;4.43;1.92;;;;;;;21.72;54.30;98815.94;5068668;28;20551;-42
2023/07/23 06:46:16;;;;;;;3.28;2.10;;;;;;;21.73;54.59;98822.88;5066980;28;20040;-40
2023/07/23 06:48:42;;;;;;;4.63;2.08;;;;;;;21.58;54.79;98808.44;5031579;28;20073;-41
2023/07/23 06:51:08;;;;;;;3.83;2.13;;;;;;;21.35;55.75;98800.88;5049318;28;20533;-37
2023/07/23 06:53:34;;;;;;;6.00;2.30;;;;;;;21.26;56.78;98832.59;5065526;28;20040;-38
2023/07/23 06:56:08;;;;;;;3.78;2.17;;;;;;;21.13;58.16;98825.75;5069909;28;20110;-38
2023/07/23 06:58:36;;;;;;;6.13;2.30;;;;;;;21.08;59.00;98821.88;5065691;28;20360;-38
2023/07/23 07:01:02;;;;;;;4.55;2.63;;;;;;;21.04;59.73;98820.50;5065875;28;20044;-37
2023/07/23 07:03:28;;;;;;;3.80;2.20;;;;;;;21.19;59.63;98823.56;5067918;28;20040;-38
2023/07/23 07:05:54;;;;;;;4.20;2.33;;;;;;;21.26;59.49;98829.94;5065954;28;20429;-38
2023/07/23 07:08:20;;;;;;;3.40;1.90;;;;;;;21.21;59.78;98827.72;5044769;28;20040;-38
2023/07/23 07:10:46;;;;;;;6.93;2.60;;;;;;;20.94;60.30;98795.84;5065663;28;20051;-37
2023/07/23 07:13:15;;;;;;;3.38;2.28;;;;;;;21.22;60.33;98825.91;5064202;28;20054;-36
2023/07/23 07:15:41;;;;;;;3.70;2.50;;;;;;;21.24;60.46;98821.34;5065949;28;20045;-36
2023/07/23 07:18:07;;;;;;;3.72;2.47;;;;;;;21.33;60.26;98823.13;5065535;28;20093;-37
2023/07/23 07:20:33;;;;;;;9.75;2.70;;;;;;;21.48;60.16;98825.19;5061845;28;20044;-36
2023/07/23 07:22:59;;;;;;;5.50;2.92;;;;;;;21.60;59.72;98819.72;5065480;28;20036;-38
2023/07/23 07:25:25;;;;;;;2.38;1.88;;;;;;;22.13;58.54;98820.84;5065425;28;20157;-38
2023/07/23 07:27:51;;;;;;;8.40;2.72;;;;;;;22.46;57.62;98821.19;5070459;28;20047;-37
2023/07/23 07:30:17;;;;;;;3.15;2.63;;;;;;;22.95;56.58;98819.91;5069319;28;20121;-39
2023/07/23 07:32:42;;;;;;;5.10;2.40;;;;;;;22.69;56.68;98830.41;5062832;28;20526;-37
2023/07/23 07:35:09;;;;;;;3.70;2.33;;;;;;;22.64;56.54;98803.53;5069128;28;20037;-37
2023/07/23 07:37:35;;;;;;;2.83;2.50;;;;;;;22.41;57.19;98821.63;5064336;28;20420;-37
2023/07/23 07:40:01;;;;;;;4.03;2.50;;;;;;;22.17;57.95;98830.16;5066504;28;20040;-37
2023/07/23 07:42:26;;;;;;;6.90;2.60;;;;;;;21.94;58.75;98818.25;5063205;28;20040;-37
2023/07/23 07:44:53;;;;;;;2.50;2.08;;;;;;;21.77;59.59;98826.94;5062544;28;20500;-37
2023/07/23 07:47:18;;;;;;;10.40;2.70;;;;;;;21.69;60.36;98813.56;5065629;28;20040;-37
2023/07/23 07:49:44;;;;;;;6.40;2.83;;;;;;;21.74;60.40;98796.28;5067527;28;20037;-37
2023/07/23 07:52:11;;;;;;;6.68;2.58;;;;;;;21.96;59.59;98792.47;5067728;28;20040;-37
2023/07/23 07:54:37;;;;;;;3.60;2.45;;;;;;;22.37;59.07;98818.47;5065989;28;20044;-37
2023/07/23 07:57:03;;;;;;;6.32;2.33;;;;;;;22.53;57.82;98809.88;5049690;28;20055;-36
2023/07/23 07:59:30;;;;;;;5.47;2.40;;;;;;;23.19;56.26;98810.34;5063546;28;20044;-38
2023/07/23 08:01:57;;;;;;;5.28;2.70;;;;;;;23.72;54.85;98795.31;5065767;28;20786;-39
2023/07/23 08:04:23;;;;;;;6.20;2.67;;;;;;;23.75;54.29;98809.13;5058428;28;20064;-38
2023/07/23 08:06:50;;;;;;;6.28;2.70;;;;;;;24.03;53.91;98813.22;5066404;28;20066;-37
2023/07/23 08:09:17;;;;;;;5.55;3.05;;;;;;;24.19;53.66;98814.31;5070520;28;20055;-37
2023/07/23 08:11:46;;;;;;;5.95;2.83;;;;;;;24.40;53.30;98817.38;5065108;28;20523;-40
2023/07/23 08:14:13;;;;;;;4.05;2.58;;;;;;;24.61;52.50;98820.44;5035568;28;20101;-38
2023/07/23 08:16:39;;;;;;;3.45;2.78;;;;;;;24.76;51.97;98820.63;5068395;28;20032;-39
2023/07/23 08:19:06;;;;;;;8.43;2.63;;;;;;;24.86;51.82;98813.38;5049600;28;20091;-38
2023/07/23 08:21:32;;;;;;;4.93;3.00;;;;;;;24.98;51.44;98821.84;5058523;28;20052;-38
2023/07/23 08:23:58;;;;;;;6.28;2.95;;;;;;;24.81;51.01;98821.81;5068277;28;20595;-38
2023/07/23 08:26:26;;;;;;;4.25;2.53;;;;;;;24.87;50.68;98821.19;5067718;28;20043;-37
2023/07/23 08:28:59;;;;;;;4.72;3.13;;;;;;;24.80;50.64;98814.84;5060960;28;20044;-33
2023/07/23 08:31:25;;;;;;;4.85;2.88;;;;;;;24.55;50.77;98820.28;5042921;28;20044;-38
2023/07/23 08:33:52;;;;;;;5.13;2.90;;;;;;;24.29;51.17;98825.66;5051909;28;20041;-37
2023/07/23 08:36:18;;;;;;;4.50;2.55;;;;;;;23.83;51.73;98822.41;5065022;28;20058;-33
2023/07/23 08:38:45;;;;;;;2.38;2.00;;;;;;;23.58;51.60;98821.44;5065827;28;20060;-43
2023/07/23 08:41:33;;;;;;;4.32;2.70;;;;;;;23.77;51.65;98816.91;5065592;28;20055;-37
2023/07/23 08:43:59;;;;;;;;;;;;;;;24.03;51.09;98820.34;5067939;28;20220;-36
2023/07/23 08:46:27;;;;;;;3.17;2.05;;;;;;;23.86;50.29;98805.34;5065001;28;20086;-39
2023/07/23 08:48:52;;;;;;;4.25;2.20;;;;;;;23.67;50.90;98805.56;5069156;28;20459;-40
2023/07/23 08:51:19;;;;;;;3.47;2.05;;;;;;;23.15;51.46;98787.78;5066193;28;20040;-41
2023/07/23 08:53:46;;;;;;;4.07;2.50;;;;;;;22.83;52.35;98779.53;5075018;28;20049;-42
2023/07/23 08:56:22;;;;;;;4.22;2.65;;;;;;;22.71;52.88;98794.88;5048074;28;20474;-41
2023/07/23 08:58:48;;;;;;;5.18;2.42;;;;;;;22.52;53.21;98768.44;5064729;28;20225;-42
2023/07/23 09:01:15;;;;;;;3.70;2.40;;;;;;;22.57;53.82;98782.09;5067301;28;20053;-43
2023/07/23 09:03:41;;;;;;;8.60;2.70;;;;;;;22.04;55.09;98752.03;5067433;28;20040;-42
2023/07/23 09:06:08;;;;;;;3.85;2.65;;;;;;;22.10;55.77;98773.44;5031499;28;20128;-43
2023/07/23 09:08:34;;;;;;;8.07;2.60;;;;;;;21.84;56.48;98781.22;5048294;28;20497;-41
2023/07/23 09:11:04;;;;;;;4.10;2.35;;;;;;;21.19;57.88;98768.06;5049569;28;20128;-42
2023/07/23 09:13:34;;;;;;;8.32;2.92;;;;;;;20.80;62.84;98798.91;5048193;28;20428;-41
2023/07/23 09:16:01;;;;;;;2.95;2.28;;;;;;;19.86;65.89;98760.63;5066005;28;20040;-40
2023/07/23 09:18:27;;;;;;;5.20;2.85;;;;;;;19.90;67.68;98830.63;5059173;28;20051;-40
2023/07/23 09:20:53;;;;;;;3.80;2.30;;;;;;;19.43;69.04;98774.00;5052784;28;20131;-40
2023/07/23 09:23:19;;;;;;;7.90;3.20;;;;;;;18.60;80.61;98818.72;5046675;28;20040;-40
2023/07/23 09:25:46;;;;;;;6.85;3.67;;;;;;;18.15;87.97;98821.41;5063236;28;20125;-40
2023/07/23 09:28:22;;;;;;;7.05;4.10;;;;;;;18.24;92.59;98813.72;5064371;28;20052;-41
2023/07/23 09:30:48;;;;;;;6.55;4.40;;;;;;;18.77;91.49;98778.69;5064426;28;20045;-42
2023/07/23 09:33:14;;;;;;;4.88;4.07;;;;;;;18.89;91.78;98809.25;5058044;28;20110;-42
2023/07/23 09:35:41;;;;;;;5.53;4.30;;;;;;;18.89;92.52;98809.25;5032190;28;20508;-40
2023/07/23 09:38:12;;;;;;;8.40;4.20;;;;;;;18.74;92.07;98807.03;5063132;28;20037;-41
2023/07/23 09:40:39;;;;;;;8.70;4.60;;;;;;;18.65;92.96;98813.91;5063003;28;20032;-41
2023/07/23 09:43:06;;;;;;;4.53;3.60;;;;;;;18.95;92.25;98806.13;5063554;28;20123;-41
2023/07/23 09:45:39;;;;;;;9.82;3.72;;;;;;;19.24;89.48;98814.25;5061047;28;20044;-39
2023/07/23 09:48:07;;;;;;;4.65;3.53;;;;;;;19.39;87.59;98798.94;5045241;28;20044;-40
2023/07/23 09:50:34;;;;;;;5.60;3.65;;;;;;;19.55;85.86;98798.50;5062103;28;20059;-41
2023/07/23 09:52:59;;;;;;;4.65;3.30;;;;;;;19.17;84.38;98752.47;5061364;28;20435;-41
2023/07/23 09:55:25;;;;;;;3.15;2.85;;;;;;;19.49;84.25;98805.16;5063659;28;20581;-41
2023/07/23 09:57:53;;;;;;;3.42;3.00;;;;;;;19.35;83.13;98808.94;5062662;28;20572;-39
2023/07/23 10:00:19;;;;;;;3.00;2.70;;;;;;;19.24;83.26;98810.78;5062220;28;20857;-39
2023/07/23 10:02:49;;;;;;;4.93;3.80;;;;;;;19.23;83.29;98801.19;5067168;28;20043;-43
2023/07/23 10:05:18;;;;;;;3.50;3.20;;;;;;;19.42;83.47;98801.31;5067213;28;20044;-59
2023/07/23 10:07:47;;;;;;;3.67;2.95;;;;;;;19.55;82.75;98809.06;5067586;28;20036;-44
2023/07/23 10:10:13;;;;;;;;;;;;;;;19.53;82.06;98808.34;5047058;28;20033;-47
2023/07/23 10:12:39;;;;;;;6.50;3.78;;;;;;;19.55;81.92;98799.34;5051981;28;19916;-45
2023/07/23 10:15:07;;;;;;;4.68;3.25;;;;;;;19.98;80.49;98795.66;5067434;28;20135;-52
2023/07/23 10:17:36;;;;;;;3.58;2.65;;;;;;;20.39;78.28;98805.25;5066112;28;20070;-43
2023/07/23 10:20:02;;;;;;;3.97;2.90;;;;;;;20.71;75.85;98800.59;5066485;28;20090;-47
2023/07/23 10:22:33;;;;;;;3.63;3.17;;;;;;;21.13;73.76;98796.69;5033405;28;20043;-48
2023/07/23 10:24:58;;;;;;;6.47;3.20;;;;;;;21.27;71.90;98799.88;5067748;28;20050;-44
2023/07/23 10:27:24;;;;;;;8.45;3.30;;;;;;;21.28;70.26;98793.63;5048867;28;20032;-46
2023/07/23 10:30:18;;;;;;;3.58;3.13;;;;;;;21.56;68.62;98792.75;5049369;28;20369;-45
2023/07/23 10:32:45;;;;;;;2.92;2.60;;;;;;;21.75;66.70;98805.91;5063297;28;20041;-47
2023/07/23 10:35:11;;;;;;;3.00;2.63;;;;;;;22.19;65.67;98795.59;5068065;28;20249;-45
2023/07/23 10:37:38;;;;;;;2.67;2.10;;;;;;;22.26;63.43;98784.25;5061452;28;20747;-44
2023/07/23 10:40:04;;;;;;;2.72;2.35;;;;;;;21.99;63.15;98810.69;5050378;28;20040;-47
2023/07/23 10:42:30;;;;;;;3.85;2.45;;;;;;;21.74;63.41;98814.81;5067406;28;20040;-48
2023/07/23 10:45:15;;;;;;;5.18;2.92;;;;;;;21.42;64.58;98801.94;5067619;28;20040;-47
2023/07/23 10:47:57;;;;;;;3.33;3.03;;;;;;;21.29;65.54;98798.78;5064901;28;20086;-49
2023/07/23 10:50:24;;;;;;;3.35;2.85;;;;;;;21.31;65.90;98799.47;5067087;28;20102;-42
2023/07/23 10:52:52;;;;;;;3.45;2.90;;;;;;;21.07;66.10;98801.69;5068701;28;20546;-47
2023/07/23 10:55:40;;;;;;;3.97;2.83;;;;;;;21.00;66.63;98806.69;5070573;28;20090;-45
2023/07/23 10:58:11;;;;;;;5.55;2.85;;;;;;;21.12;66.47;98810.88;5070978;28;20522;-44
2023/07/23 11:00:45;;;;;;;5.65;2.65;;;;;;;21.14;65.46;98795.72;5072062;28;20063;-46
2023/07/23 11:03:12;;;;;;;4.85;3.08;;;;;;;21.25;65.56;98799.22;5069412;28;20036;-43
2023/07/23 11:05:40;;;;;;;3.47;2.72;;;;;;;21.47;65.35;98796.22;5072247;28;20075;-47
2023/07/23 11:08:16;;;;;;;3.55;2.63;;;;;;;21.68;64.13;98796.03;5069495;28;20056;-45
2023/07/23 11:10:59;;;;;;;5.10;2.85;;;;;;;21.30;64.45;98783.75;5084297;28;20130;-46
2023/07/23 11:13:31;;;;;;;5.03;2.85;;;;;;;21.12;65.33;98783.59;5066766;28;20130;-44
2023/07/23 11:15:57;;;;;;;4.05;2.92;;;;;;;21.11;66.19;98788.06;5069233;28;20037;-43
2023/07/23 11:18:23;;;;;;;3.50;2.47;;;;;;;21.07;66.10;98796.41;5053341;28;20520;-45
2023/07/23 11:20:51;;;;;;;5.53;3.10;;;;;;;20.86;66.46;98785.16;5068070;28;20040;-44
2023/07/23 11:23:20;;;;;;;4.43;3.20;;;;;;;20.79;66.56;98784.03;5059869;28;20078;-46
2023/07/23 11:25:50;;;;;;;5.53;3.03;;;;;;;20.54;66.79;98754.56;5048233;28;20789;-52
2023/07/23 11:28:20;;;;;;;6.00;2.90;;;;;;;20.72;67.12;98781.13;5069388;28;20063;-46
2023/07/23 11:30:52;;;;;;;3.13;2.75;;;;;;;20.76;66.99;98779.03;5047944;28;20043;-46
2023/07/23 11:33:20;;;;;;;3.20;2.70;;;;;;;20.68;67.22;98769.97;5060200;28;20095;-44